createdAt,value
2022-08-19T00:01:29.188Z,20.76
2022-08-19T00:03:58.122Z,20.74
2022-08-19T00:06:25.543Z,20.77
2022-08-19T00:08:53.215Z,20.83
2022-08-19T00:11:26.075Z,20.80
2022-08-19T00:13:53.745Z,20.86
2022-08-19T00:16:25.088Z,20.80
2022-08-19T00:18:56.362Z,20.79
2022-08-19T00:21:23.950Z,20.76
2022-08-19T00:23:51.408Z,20.76
2022-08-19T00:26:18.806Z,20.67
2022-08-19T00:28:46.231Z,20.60
2022-08-19T00:31:13.653Z,20.61
2022-08-19T00:33:41.636Z,20.58
2022-08-19T00:36:11.109Z,20.55
2022-08-19T00:38:43.735Z,20.48
2022-08-19T00:41:11.831Z,20.44
2022-08-19T00:43:39.708Z,20.40
2022-08-19T00:46:07.234Z,20.40
2022-08-19T00:48:35.285Z,20.40
2022-08-19T00:51:03.076Z,20.35
2022-08-19T00:53:34.986Z,20.35
2022-08-19T00:56:03.197Z,20.28
2022-08-19T00:58:32.053Z,20.26
2022-08-19T01:00:59.714Z,20.20
2022-08-19T01:03:27.440Z,20.25
2022-08-19T01:05:56.113Z,20.22
2022-08-19T01:08:24.151Z,20.19
2022-08-19T01:10:55.079Z,20.16
2022-08-19T01:13:23.590Z,20.11
2022-08-19T01:15:54.020Z,20.12
2022-08-19T01:18:22.295Z,20.14
2022-08-19T01:20:49.809Z,20.11
2022-08-19T01:23:18.535Z,20.14
2022-08-19T01:25:47.566Z,20.17
2022-08-19T01:28:17.329Z,20.16
2022-08-19T01:30:51.124Z,20.14
2022-08-19T01:33:18.699Z,20.15
2022-08-19T01:35:46.054Z,20.12
2022-08-19T01:38:22.688Z,20.10
2022-08-19T01:40:50.031Z,20.12
2022-08-19T01:43:17.452Z,20.11
2022-08-19T01:45:44.810Z,20.08
2022-08-19T01:48:12.200Z,20.08
2022-08-19T01:50:39.693Z,20.07
2022-08-19T01:53:08.861Z,20.06
2022-08-19T01:55:40.524Z,20.03
2022-08-19T01:58:10.104Z,20.06
2022-08-19T02:00:38.213Z,20.03
2022-08-19T02:03:05.635Z,19.98
2022-08-19T02:05:32.967Z,19.97
2022-08-19T02:08:00.425Z,19.96
2022-08-19T02:10:27.776Z,19.96
2022-08-19T02:12:56.493Z,20.00
2022-08-19T02:15:24.513Z,19.93
2022-08-19T02:17:51.857Z,19.94
2022-08-19T02:20:19.315Z,19.92
2022-08-19T02:22:46.775Z,19.91
2022-08-19T02:25:14.921Z,19.85
2022-08-19T02:27:43.612Z,19.90
2022-08-19T02:30:14.614Z,19.91
2022-08-19T02:32:44.390Z,19.89
2022-08-19T02:35:12.840Z,19.87
2022-08-19T02:37:57.958Z,19.87
2022-08-19T02:40:25.303Z,19.84
2022-08-19T02:42:52.739Z,19.81
2022-08-19T02:45:21.708Z,19.78
2022-08-19T02:47:49.062Z,19.79
2022-08-19T02:50:16.480Z,19.80
2022-08-19T02:52:43.849Z,19.79
2022-08-19T02:55:11.373Z,19.81
2022-08-19T02:57:38.758Z,19.77
2022-08-19T03:00:06.991Z,19.75
2022-08-19T03:02:35.924Z,19.74
2022-08-19T03:05:05.131Z,19.67
2022-08-19T03:07:32.755Z,19.62
2022-08-19T03:10:00.596Z,19.62
2022-08-19T03:12:27.950Z,19.62
2022-08-19T03:14:55.335Z,19.64
2022-08-19T03:17:22.704Z,19.64
2022-08-19T03:19:51.393Z,19.61
2022-08-19T03:22:18.754Z,19.60
2022-08-19T03:24:46.808Z,19.47
2022-08-19T03:27:15.086Z,19.43
2022-08-19T03:29:43.150Z,19.42
2022-08-19T03:32:31.659Z,19.37
2022-08-19T03:35:00.153Z,19.38
2022-08-19T03:37:27.684Z,19.40
2022-08-19T03:39:55.157Z,19.40
2022-08-19T03:42:38.248Z,19.32
2022-08-19T03:45:11.375Z,19.27
2022-08-19T03:47:39.000Z,19.23
2022-08-19T03:50:09.617Z,19.27
2022-08-19T03:52:37.373Z,19.27
2022-08-19T03:55:05.141Z,19.23
2022-08-19T03:57:33.325Z,19.15
2022-08-19T04:00:06.839Z,19.12
2022-08-19T04:02:41.265Z,19.09
2022-08-19T04:05:10.621Z,19.03
2022-08-19T04:07:37.987Z,19.03
2022-08-19T04:10:05.785Z,18.98
2022-08-19T04:12:33.284Z,18.96
2022-08-19T04:15:00.649Z,18.95
2022-08-19T04:17:27.997Z,18.99
2022-08-19T04:19:55.358Z,18.95
2022-08-19T04:22:24.043Z,18.99
2022-08-19T04:24:54.529Z,19.01
2022-08-19T04:27:21.955Z,18.99
2022-08-19T04:29:50.111Z,19.00
2022-08-19T04:32:17.495Z,18.96
2022-08-19T04:35:01.237Z,18.94
2022-08-19T04:37:35.601Z,18.88
2022-08-19T04:40:21.340Z,18.84
2022-08-19T04:42:48.854Z,18.81
2022-08-19T04:45:17.400Z,18.75
2022-08-19T04:47:48.106Z,18.82
2022-08-19T04:50:26.056Z,18.80
2022-08-19T04:52:56.462Z,18.78
2022-08-19T04:55:26.560Z,18.76
2022-08-19T04:57:54.044Z,18.76
2022-08-19T05:00:21.533Z,18.76
2022-08-19T05:02:50.325Z,18.79
2022-08-19T05:05:18.275Z,18.79
2022-08-19T05:07:45.670Z,18.75
2022-08-19T05:10:14.825Z,18.73
2022-08-19T05:12:42.238Z,18.66
2022-08-19T05:15:11.850Z,18.64
2022-08-19T05:17:59.198Z,18.66
2022-08-19T05:20:43.981Z,18.70
2022-08-19T05:23:19.470Z,18.69
2022-08-19T05:25:52.454Z,18.65
2022-08-19T05:28:20.340Z,18.58
2022-08-19T05:30:49.042Z,18.62
2022-08-19T05:33:16.768Z,18.65
2022-08-19T05:35:44.911Z,18.61
2022-08-19T05:38:13.190Z,18.66
2022-08-19T05:40:40.938Z,18.67
2022-08-19T05:43:10.326Z,18.62
2022-08-19T05:45:40.159Z,18.60
2022-08-19T05:48:07.714Z,18.63
2022-08-19T05:50:35.076Z,18.64
2022-08-19T05:53:02.416Z,18.66
2022-08-19T05:55:29.837Z,18.65
2022-08-19T05:57:57.272Z,18.61
2022-08-19T06:00:26.153Z,18.60
2022-08-19T06:02:55.658Z,18.58
2022-08-19T06:05:23.203Z,18.60
2022-08-19T06:07:50.589Z,18.67
2022-08-19T06:10:17.964Z,18.67
2022-08-19T06:12:45.332Z,18.64
2022-08-19T06:15:14.736Z,18.60
2022-08-19T06:17:45.287Z,18.60
2022-08-19T06:20:14.432Z,18.45
2022-08-19T06:22:42.345Z,18.46
2022-08-19T06:25:11.041Z,18.36
2022-08-19T06:27:45.055Z,18.40
2022-08-19T06:30:20.793Z,18.41
2022-08-19T06:32:49.503Z,18.41
2022-08-19T06:35:16.930Z,18.45
2022-08-19T06:37:45.228Z,18.46
2022-08-19T06:40:13.501Z,18.43
2022-08-19T06:42:44.392Z,18.32
2022-08-19T06:45:24.988Z,18.22
2022-08-19T06:48:03.531Z,18.22
2022-08-19T06:50:30.955Z,18.21
2022-08-19T06:52:58.469Z,18.29
2022-08-19T06:55:33.525Z,18.40
2022-08-19T06:58:04.473Z,18.46
2022-08-19T07:03:08.728Z,18.45
2022-08-19T07:05:40.203Z,18.41
2022-08-19T07:08:12.785Z,18.34
2022-08-19T07:10:44.244Z,18.36
2022-08-19T07:13:11.608Z,18.39
2022-08-19T07:15:39.755Z,18.37
2022-08-19T07:18:11.878Z,18.34
2022-08-19T07:20:40.286Z,18.35
2022-08-19T07:23:09.742Z,18.40
2022-08-19T07:25:39.813Z,18.34
2022-08-19T07:28:22.471Z,18.34
2022-08-19T07:30:52.790Z,18.42
2022-08-19T07:33:21.984Z,18.45
2022-08-19T07:35:50.470Z,18.40
2022-08-19T07:38:18.045Z,18.35
2022-08-19T07:40:46.804Z,18.30
2022-08-19T07:43:14.285Z,18.36
2022-08-19T07:45:45.403Z,18.35
2022-08-19T07:48:13.450Z,18.31
2022-08-19T07:50:42.401Z,18.34
2022-08-19T07:53:09.774Z,18.35
2022-08-19T07:55:41.309Z,18.27
2022-08-19T07:58:11.083Z,18.22
2022-08-19T08:00:38.473Z,18.30
2022-08-19T08:03:05.847Z,18.27
2022-08-19T08:05:50.898Z,18.23
2022-08-19T08:08:48.296Z,18.21
2022-08-19T08:11:16.706Z,18.25
2022-08-19T08:13:45.424Z,18.28
2022-08-19T08:16:14.048Z,18.27
2022-08-19T08:18:43.220Z,18.24
2022-08-19T08:21:10.706Z,18.29
2022-08-19T08:23:39.739Z,18.25
2022-08-19T08:26:07.258Z,18.30
2022-08-19T08:28:34.649Z,18.29
2022-08-19T08:31:02.257Z,18.26
2022-08-19T08:33:37.021Z,18.30
2022-08-19T08:38:15.289Z,18.25
2022-08-19T08:40:49.635Z,18.25
2022-08-19T08:43:26.548Z,18.26
2022-08-19T08:46:03.595Z,18.25
2022-08-19T08:48:39.647Z,18.25
2022-08-19T08:51:12.210Z,18.23
2022-08-19T08:53:44.718Z,18.18
2022-08-19T08:56:14.253Z,18.23
2022-08-19T08:58:54.753Z,18.25
2022-08-19T09:01:23.270Z,18.25
2022-08-19T09:03:51.349Z,18.26
2022-08-19T09:06:27.892Z,18.32
2022-08-19T09:09:12.109Z,18.33
2022-08-19T09:11:49.632Z,18.38
2022-08-19T09:14:49.824Z,18.46
2022-08-19T09:17:19.678Z,18.39
2022-08-19T09:19:53.940Z,18.47
2022-08-19T09:22:26.042Z,18.54
2022-08-19T09:24:56.405Z,18.56
2022-08-19T09:27:42.130Z,18.60
2022-08-19T09:30:14.819Z,18.52
2022-08-19T09:32:44.193Z,18.43
2022-08-19T09:35:12.323Z,18.49
2022-08-19T09:37:40.371Z,18.49
2022-08-19T09:40:12.062Z,18.47
2022-08-19T09:42:50.395Z,18.50
2022-08-19T09:45:23.557Z,18.50
2022-08-19T09:47:54.126Z,18.55
2022-08-19T09:50:23.827Z,18.58
2022-08-19T09:52:55.486Z,18.66
2022-08-19T09:55:31.501Z,18.67
2022-08-19T09:58:01.444Z,18.73
2022-08-19T10:00:28.971Z,18.76
2022-08-19T10:02:56.586Z,18.80
2022-08-19T10:05:42.299Z,18.82
2022-08-19T10:08:13.687Z,18.94
2022-08-19T10:10:46.243Z,19.06
2022-08-19T10:13:16.879Z,19.16
2022-08-19T10:15:47.639Z,19.30
2022-08-19T10:18:18.741Z,19.38
2022-08-19T10:20:51.584Z,19.55
2022-08-19T10:23:21.196Z,19.57
2022-08-19T10:25:50.873Z,19.62
2022-08-19T10:28:19.401Z,19.67
2022-08-19T10:30:47.653Z,19.74
2022-08-19T10:33:16.119Z,19.78
2022-08-19T10:36:05.504Z,19.95
2022-08-19T10:38:33.155Z,20.14
2022-08-19T10:41:08.670Z,20.37
2022-08-19T10:43:38.111Z,20.50
2022-08-19T10:46:09.639Z,20.68
2022-08-19T10:48:41.901Z,20.78
2022-08-19T10:51:27.250Z,20.90
2022-08-19T10:53:56.330Z,20.98
2022-08-19T10:56:42.602Z,21.10
2022-08-19T10:59:10.706Z,21.05
2022-08-19T11:01:38.275Z,21.07
2022-08-19T11:04:09.379Z,21.25
2022-08-19T11:06:40.400Z,21.42
2022-08-19T11:09:08.374Z,21.60
2022-08-19T11:11:40.484Z,21.52
2022-08-19T11:14:09.007Z,21.58
2022-08-19T11:16:37.308Z,21.62
2022-08-19T11:19:04.811Z,21.57
2022-08-19T11:21:34.902Z,21.43
2022-08-19T11:24:04.571Z,21.56
2022-08-19T11:26:32.734Z,21.76
2022-08-19T11:29:02.807Z,21.55
2022-08-19T11:31:32.619Z,21.67
2022-08-19T11:34:02.487Z,21.72
2022-08-19T11:36:30.771Z,21.89
2022-08-19T11:38:58.259Z,21.74
2022-08-19T11:41:26.677Z,21.68
2022-08-19T11:43:56.111Z,21.77
2022-08-19T11:46:26.866Z,21.84
2022-08-19T11:48:56.032Z,22.02
2022-08-19T11:51:25.809Z,22.13
2022-08-19T11:53:54.214Z,22.09
2022-08-19T11:56:22.758Z,22.25
2022-08-19T11:58:50.641Z,22.32
2022-08-19T12:01:20.756Z,22.36
2022-08-19T12:03:51.556Z,22.54
2022-08-19T12:06:29.474Z,22.73
2022-08-19T12:08:58.260Z,22.79
2022-08-19T12:11:26.331Z,22.85
2022-08-19T12:13:55.936Z,22.86
2022-08-19T12:16:28.916Z,22.97
2022-08-19T12:18:58.943Z,23.03
2022-08-19T12:21:29.458Z,23.00
2022-08-19T12:23:59.084Z,23.15
2022-08-19T12:26:28.481Z,23.14
2022-08-19T12:28:56.299Z,23.24
2022-08-19T12:31:23.820Z,23.29
2022-08-19T12:33:53.328Z,23.43
2022-08-19T12:36:23.967Z,23.47
2022-08-19T12:38:51.904Z,23.53
2022-08-19T12:41:23.317Z,23.67
2022-08-19T12:43:52.017Z,23.77
2022-08-19T12:46:22.304Z,23.66
2022-08-19T12:48:55.196Z,23.73
2022-08-19T12:51:26.249Z,23.89
2022-08-19T12:53:53.717Z,23.92
2022-08-19T12:56:23.187Z,23.99
2022-08-19T12:58:53.084Z,24.09
2022-08-19T13:01:22.941Z,24.15
2022-08-19T13:03:51.146Z,24.19
2022-08-19T13:06:20.265Z,24.14
2022-08-19T13:08:49.428Z,24.20
2022-08-19T13:11:19.175Z,24.34
2022-08-19T13:13:49.075Z,24.31
2022-08-19T13:16:17.114Z,24.46
2022-08-19T13:18:47.757Z,24.51
2022-08-19T13:21:15.854Z,24.63
2022-08-19T13:23:43.572Z,24.63
2022-08-19T13:26:13.661Z,24.53
2022-08-19T13:28:59.959Z,24.57
2022-08-19T13:31:47.487Z,24.61
2022-08-19T13:34:16.106Z,24.54
2022-08-19T13:36:43.632Z,24.72
2022-08-19T13:39:11.694Z,24.74
2022-08-19T13:41:48.793Z,24.75
2022-08-19T13:44:19.774Z,24.86
2022-08-19T13:46:48.029Z,25.09
2022-08-19T13:49:16.878Z,25.19
2022-08-19T13:51:45.503Z,25.18
2022-08-19T13:54:14.163Z,25.27
2022-08-19T13:56:44.902Z,25.25
2022-08-19T13:59:13.317Z,25.27
2022-08-19T14:01:41.958Z,25.24
2022-08-19T14:04:09.804Z,25.38
2022-08-19T14:06:37.433Z,25.38
2022-08-19T14:09:05.762Z,25.38
2022-08-19T14:11:33.308Z,25.61
2022-08-19T14:14:02.229Z,25.68
2022-08-19T14:16:31.331Z,25.72
2022-08-19T14:18:58.704Z,25.88
2022-08-19T14:21:26.961Z,25.82
2022-08-19T14:23:55.718Z,25.74
2022-08-19T14:26:25.280Z,25.71
2022-08-19T14:28:53.186Z,25.84
2022-08-19T14:31:27.801Z,25.83
2022-08-19T14:33:57.852Z,25.78
2022-08-19T14:36:25.394Z,25.57
2022-08-19T14:38:53.039Z,25.56
2022-08-19T14:41:22.310Z,25.49
2022-08-19T14:43:52.393Z,25.42
2022-08-19T14:46:26.134Z,25.32
2022-08-19T14:48:56.840Z,25.04
2022-08-19T14:51:27.413Z,24.95
2022-08-19T14:53:55.201Z,24.93
2022-08-19T14:56:25.747Z,24.88
2022-08-19T14:58:53.967Z,24.90
2022-08-19T15:01:24.697Z,24.95
2022-08-19T15:03:53.940Z,24.95
2022-08-19T15:06:23.165Z,24.79
2022-08-19T15:08:52.563Z,24.68
2022-08-19T15:11:23.628Z,24.60
2022-08-19T15:13:51.995Z,24.50
2022-08-19T15:16:20.551Z,24.62
2022-08-19T15:18:52.172Z,24.76
2022-08-19T15:21:26.942Z,24.91
2022-08-19T15:23:56.019Z,25.09
2022-08-19T15:26:23.583Z,25.19
2022-08-19T15:28:51.110Z,25.08
2022-08-19T15:31:28.001Z,25.16
2022-08-19T15:33:59.014Z,25.22
2022-08-19T15:36:27.533Z,25.33
2022-08-19T15:38:55.544Z,25.24
2022-08-19T15:41:24.859Z,25.09
2022-08-19T15:43:55.411Z,25.02
2022-08-19T15:46:25.714Z,25.06
2022-08-19T15:48:55.999Z,25.16
2022-08-19T15:51:31.298Z,25.22
2022-08-19T15:54:01.144Z,25.10
2022-08-19T15:56:58.266Z,25.11
2022-08-19T15:59:47.409Z,25.18
2022-08-19T16:02:33.709Z,25.10
2022-08-19T16:05:18.855Z,24.97
2022-08-19T16:07:48.417Z,25.03
2022-08-19T16:10:26.278Z,25.02
2022-08-19T16:12:56.086Z,24.96
2022-08-19T16:15:24.023Z,24.92
2022-08-19T16:17:56.777Z,24.93
2022-08-19T16:20:26.200Z,24.96
2022-08-19T16:22:56.533Z,24.97
2022-08-19T16:25:29.032Z,25.09
2022-08-19T16:28:07.606Z,25.13
2022-08-19T16:30:36.285Z,25.06
2022-08-19T16:33:03.787Z,25.00
2022-08-19T16:35:31.360Z,24.95
2022-08-19T16:38:00.619Z,24.89
2022-08-19T16:40:28.147Z,24.82
2022-08-19T16:42:56.471Z,24.82
2022-08-19T16:45:24.159Z,24.81
2022-08-19T16:47:51.681Z,24.74
2022-08-19T16:50:25.378Z,24.67
2022-08-19T16:53:03.421Z,24.69
2022-08-19T16:55:30.919Z,24.63
2022-08-19T16:57:58.520Z,24.66
2022-08-19T17:00:26.008Z,24.62
2022-08-19T17:02:53.625Z,24.56
2022-08-19T17:05:21.456Z,24.58
2022-08-19T17:07:48.939Z,24.52
2022-08-19T17:10:17.750Z,24.42
2022-08-19T17:12:45.237Z,24.26
2022-08-19T17:15:12.979Z,24.15
2022-08-19T17:17:41.444Z,24.11
2022-08-19T17:20:09.727Z,24.07
2022-08-19T17:22:37.377Z,24.02
2022-08-19T17:25:05.869Z,23.97
2022-08-19T17:27:34.906Z,24.04
2022-08-19T17:30:03.195Z,24.07
2022-08-19T17:32:32.392Z,24.04
2022-08-19T17:34:59.851Z,23.92
2022-08-19T17:37:28.106Z,23.82
2022-08-19T17:39:55.634Z,23.75
2022-08-19T17:42:23.237Z,23.67
2022-08-19T17:44:52.243Z,23.59
2022-08-19T17:47:20.994Z,23.49
2022-08-19T17:49:48.569Z,23.48
2022-08-19T17:52:16.231Z,23.48
2022-08-19T17:54:43.725Z,23.47
2022-08-19T17:57:11.250Z,23.50
2022-08-19T17:59:38.877Z,23.52
2022-08-19T18:02:10.060Z,23.49
2022-08-19T18:04:38.952Z,23.36
2022-08-19T18:07:06.480Z,23.30
2022-08-19T18:09:41.431Z,23.25
2022-08-19T18:12:12.204Z,23.23
2022-08-19T18:14:41.151Z,23.18
2022-08-19T18:17:12.379Z,23.12
2022-08-19T18:19:43.750Z,23.10
2022-08-19T18:22:14.080Z,23.01
2022-08-19T18:24:42.649Z,22.96
2022-08-19T18:27:13.487Z,22.92
2022-08-19T18:29:40.975Z,22.89
2022-08-19T18:32:13.145Z,22.86
2022-08-19T18:34:42.040Z,22.81
2022-08-19T18:37:09.664Z,22.78
2022-08-19T18:39:55.269Z,22.71
2022-08-19T18:42:40.398Z,22.66
2022-08-19T18:45:27.739Z,22.63
2022-08-19T18:48:26.925Z,22.64
2022-08-19T18:50:59.931Z,22.64
2022-08-19T18:53:29.335Z,22.65
2022-08-19T18:55:57.306Z,22.63
2022-08-19T18:58:31.963Z,22.59
2022-08-19T19:01:00.314Z,22.60
2022-08-19T19:03:29.240Z,22.57
2022-08-19T19:05:56.812Z,22.56
2022-08-19T19:08:27.105Z,22.55
2022-08-19T19:10:56.263Z,22.55
2022-08-19T19:13:23.964Z,22.54
2022-08-19T19:15:51.649Z,22.51
2022-08-19T19:18:19.190Z,22.46
2022-08-19T19:20:48.058Z,22.40
2022-08-19T19:23:15.577Z,22.35
2022-08-19T19:25:50.491Z,22.32
2022-08-19T19:28:25.422Z,22.23
2022-08-19T19:30:54.221Z,22.14
2022-08-19T19:33:21.889Z,22.01
2022-08-19T19:35:50.780Z,21.90
2022-08-19T19:38:18.587Z,21.87
2022-08-19T19:40:46.451Z,21.83
2022-08-19T19:43:17.085Z,21.83
2022-08-19T19:45:44.875Z,21.82
2022-08-19T19:48:13.464Z,21.82
2022-08-19T19:50:40.987Z,21.81
2022-08-19T19:53:09.921Z,21.76
2022-08-19T19:55:37.777Z,21.74
2022-08-19T19:58:06.857Z,21.71
2022-08-19T20:00:34.681Z,21.66
2022-08-19T20:03:02.361Z,21.66
2022-08-19T20:05:29.893Z,21.64
2022-08-19T20:08:14.967Z,21.62
2022-08-19T20:10:44.804Z,21.59
2022-08-19T20:13:15.401Z,21.58
2022-08-19T20:15:44.327Z,21.47
2022-08-19T20:18:14.356Z,21.44
2022-08-19T20:20:42.515Z,21.40
2022-08-19T20:23:10.138Z,21.39
2022-08-19T20:25:39.468Z,21.40
2022-08-19T20:28:08.244Z,21.42
2022-08-19T20:30:36.317Z,21.43
2022-08-19T20:33:07.555Z,21.40
2022-08-19T20:35:37.227Z,21.32
2022-08-19T20:38:08.626Z,21.27
2022-08-19T20:40:37.814Z,21.22
2022-08-19T20:43:10.630Z,21.19
2022-08-19T20:45:38.604Z,21.18
2022-08-19T20:48:09.009Z,21.16
2022-08-19T20:50:37.539Z,21.15
2022-08-19T20:53:11.367Z,21.10
2022-08-19T20:55:38.931Z,21.08
2022-08-19T20:58:06.477Z,21.08
2022-08-19T21:00:35.314Z,21.02
2022-08-19T21:03:02.848Z,20.97
2022-08-19T21:05:30.790Z,21.00
2022-08-19T21:07:58.589Z,21.01
2022-08-19T21:10:26.287Z,20.97
2022-08-19T21:12:55.401Z,20.93
2022-08-19T21:15:24.613Z,20.94
2022-08-19T21:17:53.443Z,20.92
2022-08-19T21:20:20.942Z,20.92
2022-08-19T21:22:48.487Z,20.91
2022-08-19T21:25:17.627Z,20.89
2022-08-19T21:27:45.122Z,20.89
2022-08-19T21:30:14.075Z,20.89
2022-08-19T21:32:41.560Z,20.87
2022-08-19T21:35:11.143Z,20.85
2022-08-19T21:37:38.798Z,20.87
2022-08-19T21:40:07.513Z,20.89
2022-08-19T21:42:35.830Z,20.87
2022-08-19T21:45:03.582Z,20.86
2022-08-19T21:47:31.099Z,20.86
2022-08-19T21:49:58.646Z,20.88
2022-08-19T21:52:28.095Z,20.89
2022-08-19T21:54:55.644Z,20.89
2022-08-19T21:57:24.509Z,20.90
2022-08-19T21:59:52.103Z,20.89
2022-08-19T22:02:21.353Z,20.87
2022-08-19T22:04:49.846Z,20.85
2022-08-19T22:07:17.387Z,20.82
2022-08-19T22:09:47.924Z,20.77
2022-08-19T22:12:23.933Z,20.70
2022-08-19T22:14:51.839Z,20.68
2022-08-19T22:17:20.186Z,20.66
2022-08-19T22:19:48.025Z,20.61
2022-08-19T22:22:21.425Z,20.60
2022-08-19T22:24:50.221Z,20.59
2022-08-19T22:27:17.738Z,20.58
2022-08-19T22:29:45.339Z,20.56
2022-08-19T22:32:26.552Z,20.58
2022-08-19T22:34:58.636Z,20.59
2022-08-19T22:37:26.447Z,20.59
2022-08-19T22:39:55.645Z,20.58
2022-08-19T22:42:24.883Z,20.59
2022-08-19T22:44:59.837Z,20.60
2022-08-19T22:47:30.252Z,20.63
2022-08-19T22:50:00.709Z,20.66
2022-08-19T22:52:27.491Z,20.69
2022-08-19T22:55:00.161Z,20.70
2022-08-19T22:57:28.175Z,20.71
2022-08-19T23:00:01.004Z,20.70
2022-08-19T23:02:32.328Z,20.69
2022-08-19T23:05:02.273Z,20.68
2022-08-19T23:07:29.784Z,20.69
2022-08-19T23:09:58.594Z,20.67
2022-08-19T23:12:28.503Z,20.66
2022-08-19T23:14:56.010Z,20.65
2022-08-19T23:17:23.504Z,20.65
2022-08-19T23:19:51.597Z,20.66
2022-08-19T23:22:20.031Z,20.67
2022-08-19T23:24:55.998Z,20.69
2022-08-19T23:27:42.827Z,20.72
2022-08-19T23:30:26.737Z,20.74
2022-08-19T23:32:55.184Z,20.75
2022-08-19T23:35:23.141Z,20.76
2022-08-19T23:37:52.154Z,20.77
2022-08-19T23:40:21.615Z,20.78
2022-08-19T23:42:52.801Z,20.68
2022-08-19T23:45:23.625Z,20.67
2022-08-19T23:47:51.721Z,20.67
2022-08-19T23:50:20.904Z,20.67
2022-08-19T23:52:51.789Z,20.70
2022-08-19T23:55:22.019Z,20.69
2022-08-19T23:57:51.039Z,20.69
